sensor_id;sensor_type;location;lat;lon;timestamp;pressure;altitude;pressure_sealevel;temperature;humidity
44481;BME280;30184;42.018;23.670;2023-05-28T00:00:28;91348.00;;;12.40;86.09
44481;BME280;30184;42.018;23.670;2023-05-28T00:02:57;91341.03;;;12.39;86.76
44481;BME280;30184;42.018;23.670;2023-05-28T00:05:28;91238.94;;;11.73;87.12
44481;BME280;30184;42.018;23.670;2023-05-28T00:07:58;91342.25;;;12.38;87.31
44481;BME280;30184;42.018;23.670;2023-05-28T00:10:28;91353.88;;;12.39;87.59
44481;BME280;30184;42.018;23.670;2023-05-28T00:12:58;91373.69;;;12.39;87.49
44481;BME280;30184;42.018;23.670;2023-05-28T00:15:28;91294.75;;;12.08;87.46
44481;BME280;30184;42.018;23.670;2023-05-28T00:17:57;91336.03;;;12.38;87.17
44481;BME280;30184;42.018;23.670;2023-05-28T00:20:26;91342.78;;;11.80;86.96
44481;BME280;30184;42.018;23.670;2023-05-28T00:22:57;91336.78;;;12.38;87.46
44481;BME280;30184;42.018;23.670;2023-05-28T00:25:26;91339.06;;;12.40;87.44
44481;BME280;30184;42.018;23.670;2023-05-28T00:27:56;91335.28;;;12.37;87.86
44481;BME280;30184;42.018;23.670;2023-05-28T00:30:25;91335.28;;;12.37;88.28
44481;BME280;30184;42.018;23.670;2023-05-28T00:32:55;91325.16;;;12.38;88.66
44481;BME280;30184;42.018;23.670;2023-05-28T00:35:25;91325.91;;;12.38;88.56
44481;BME280;30184;42.018;23.670;2023-05-28T00:37:54;91273.72;;;12.00;88.80
44481;BME280;30184;42.018;23.670;2023-05-28T00:40:25;91323.91;;;12.29;89.18
44481;BME280;30184;42.018;23.670;2023-05-28T00:42:54;91306.31;;;12.21;88.95
44481;BME280;30184;42.018;23.670;2023-05-28T00:45:24;91315.41;;;12.27;89.00
44481;BME280;30184;42.018;23.670;2023-05-28T00:47:54;91321.75;;;12.24;90.04
44481;BME280;30184;42.018;23.670;2023-05-28T00:50:23;91292.03;;;12.08;89.92
44481;BME280;30184;42.018;23.670;2023-05-28T00:52:53;91289.75;;;12.07;90.12
44481;BME280;30184;42.018;23.670;2023-05-28T00:55:25;91320.22;;;12.23;90.03
44481;BME280;30184;42.018;23.670;2023-05-28T00:57:54;91304.16;;;12.16;89.95
44481;BME280;30184;42.018;23.670;2023-05-28T01:00:32;91315.69;;;12.20;89.94
44481;BME280;30184;42.018;23.670;2023-05-28T01:03:02;91253.81;;;11.81;90.00
44481;BME280;30184;42.018;23.670;2023-05-28T01:05:32;91311.88;;;12.18;90.24
44481;BME280;30184;42.018;23.670;2023-05-28T01:08:03;91313.84;;;12.17;90.10
44481;BME280;30184;42.018;23.670;2023-05-28T01:10:34;91318.53;;;12.17;90.29
44481;BME280;30184;42.018;23.670;2023-05-28T01:13:05;91318.84;;;12.19;90.08
44481;BME280;30184;42.018;23.670;2023-05-28T01:15:35;91309.16;;;12.18;89.88
44481;BME280;30184;42.018;23.670;2023-05-28T01:18:06;91282.63;;;12.00;89.91
44481;BME280;30184;42.018;23.670;2023-05-28T01:20:36;91292.03;;;12.08;90.10
44481;BME280;30184;42.018;23.670;2023-05-28T01:23:11;91308.72;;;12.19;90.06
44481;BME280;30184;42.018;23.670;2023-05-28T01:25:49;91260.25;;;11.96;90.08
44481;BME280;30184;42.018;23.670;2023-05-28T01:28:20;91276.88;;;11.98;90.13
44481;BME280;30184;42.018;23.670;2023-05-28T01:30:50;91289.25;;;12.21;89.84
44481;BME280;30184;42.018;23.670;2023-05-28T01:33:20;91287.41;;;12.18;89.77
44481;BME280;30184;42.018;23.670;2023-05-28T01:35:53;91314.69;;;12.05;89.79
44481;BME280;30184;42.018;23.670;2023-05-28T01:38:23;91290.53;;;12.07;90.19
44481;BME280;30184;42.018;23.670;2023-05-28T01:40:55;91280.94;;;11.93;91.00
44481;BME280;30184;42.018;23.670;2023-05-28T01:43:25;91276.25;;;11.94;90.86
44481;BME280;30184;42.018;23.670;2023-05-28T01:45:56;91282.03;;;12.05;90.87
44481;BME280;30184;42.018;23.670;2023-05-28T01:48:26;91281.09;;;11.99;90.87
44481;BME280;30184;42.018;23.670;2023-05-28T01:50:56;91282.38;;;12.07;90.74
44481;BME280;30184;42.018;23.670;2023-05-28T01:53:26;91251.75;;;11.85;90.53
44481;BME280;30184;42.018;23.670;2023-05-28T01:55:57;91283.75;;;12.12;90.31
44481;BME280;30184;42.018;23.670;2023-05-28T01:58:27;91285.28;;;12.13;90.24
44481;BME280;30184;42.018;23.670;2023-05-28T02:01:02;91286.34;;;12.15;90.10
44481;BME280;30184;42.018;23.670;2023-05-28T02:03:38;91284.38;;;12.16;90.05
44481;BME280;30184;42.018;23.670;2023-05-28T02:06:08;91293.13;;;12.11;89.93
44481;BME280;30184;42.018;23.670;2023-05-28T02:08:37;91292.25;;;12.14;89.97
44481;BME280;30184;42.018;23.670;2023-05-28T02:11:08;91292.53;;;12.16;89.68
44481;BME280;30184;42.018;23.670;2023-05-28T02:13:37;91290.88;;;12.18;89.57
44481;BME280;30184;42.018;23.670;2023-05-28T02:16:07;91286.22;;;12.19;89.63
44481;BME280;30184;42.018;23.670;2023-05-28T02:18:38;91282.72;;;12.18;89.66
44481;BME280;30184;42.018;23.670;2023-05-28T02:21:08;91296.66;;;12.20;89.70
44481;BME280;30184;42.018;23.670;2023-05-28T02:23:38;91271.06;;;11.87;89.45
44481;BME280;30184;42.018;23.670;2023-05-28T02:26:09;91250.41;;;11.89;89.62
44481;BME280;30184;42.018;23.670;2023-05-28T02:28:39;91293.94;;;12.20;89.56
44481;BME280;30184;42.018;23.670;2023-05-28T02:31:11;91288.94;;;12.19;89.47
44481;BME280;30184;42.018;23.670;2023-05-28T02:33:41;91290.13;;;12.18;89.48
44481;BME280;30184;42.018;23.670;2023-05-28T02:36:11;91352.13;;;12.01;89.26
44481;BME280;30184;42.018;23.670;2023-05-28T02:38:41;91287.53;;;12.14;89.40
44481;BME280;30184;42.018;23.670;2023-05-28T02:41:13;91288.28;;;12.15;89.42
44481;BME280;30184;42.018;23.670;2023-05-28T02:43:47;91273.50;;;12.16;89.47
44481;BME280;30184;42.018;23.670;2023-05-28T02:46:16;91279.38;;;12.14;89.51
44481;BME280;30184;42.018;23.670;2023-05-28T02:48:47;91262.13;;;12.08;89.42
44481;BME280;30184;42.018;23.670;2023-05-28T02:51:19;91279.25;;;12.18;89.45
44481;BME280;30184;42.018;23.670;2023-05-28T02:54:11;91201.34;;;11.71;89.50
44481;BME280;30184;42.018;23.670;2023-05-28T02:56:42;91275.78;;;12.17;90.29
44481;BME280;30184;42.018;23.670;2023-05-28T02:59:12;91281.53;;;12.19;90.45
44481;BME280;30184;42.018;23.670;2023-05-28T03:01:42;91278.38;;;12.21;90.32
44481;BME280;30184;42.018;23.670;2023-05-28T03:04:12;91223.63;;;11.88;90.36
44481;BME280;30184;42.018;23.670;2023-05-28T03:06:42;91237.88;;;11.92;90.44
44481;BME280;30184;42.018;23.670;2023-05-28T03:09:12;91284.84;;;12.23;90.66
44481;BME280;30184;42.018;23.670;2023-05-28T03:11:44;91285.78;;;12.20;90.62
44481;BME280;30184;42.018;23.670;2023-05-28T03:14:15;91281.56;;;12.28;90.66
44481;BME280;30184;42.018;23.670;2023-05-28T03:16:45;91276.25;;;12.25;89.93
44481;BME280;30184;42.018;23.670;2023-05-28T03:19:22;91276.25;;;12.25;89.97
44481;BME280;30184;42.018;23.670;2023-05-28T03:21:52;91275.50;;;12.24;89.69
44481;BME280;30184;42.018;23.670;2023-05-28T03:24:24;91272.78;;;12.24;89.65
44481;BME280;30184;42.018;23.670;2023-05-28T03:26:57;91283.06;;;12.20;89.34
44481;BME280;30184;42.018;23.670;2023-05-28T03:29:26;91195.72;;;11.66;89.71
44481;BME280;30184;42.018;23.670;2023-05-28T03:32:16;91275.81;;;12.26;89.75
44481;BME280;30184;42.018;23.670;2023-05-28T03:34:46;91269.34;;;12.33;89.87
44481;BME280;30184;42.018;23.670;2023-05-28T03:37:19;91267.88;;;12.41;89.73
44481;BME280;30184;42.018;23.670;2023-05-28T03:39:48;91266.41;;;12.49;89.49
44481;BME280;30184;42.018;23.670;2023-05-28T03:42:19;91256.31;;;12.59;89.54
44481;BME280;30184;42.018;23.670;2023-05-28T03:44:48;91256.00;;;12.66;88.87
44481;BME280;30184;42.018;23.670;2023-05-28T03:47:18;91250.28;;;12.73;88.38
44481;BME280;30184;42.018;23.670;2023-05-28T03:49:47;91258.16;;;12.80;88.15
44481;BME280;30184;42.018;23.670;2023-05-28T03:52:17;91252.25;;;12.82;87.56
44481;BME280;30184;42.018;23.670;2023-05-28T03:54:51;91256.94;;;12.81;87.18
44481;BME280;30184;42.018;23.670;2023-05-28T03:57:21;91262.41;;;12.90;87.15
44481;BME280;30184;42.018;23.670;2023-05-28T03:59:51;91258.19;;;12.98;86.84
44481;BME280;30184;42.018;23.670;2023-05-28T04:02:23;91254.44;;;13.05;86.55
44481;BME280;30184;42.018;23.670;2023-05-28T04:04:53;91203.41;;;12.69;86.01
44481;BME280;30184;42.018;23.670;2023-05-28T04:07:22;91262.22;;;13.16;85.89
44481;BME280;30184;42.018;23.670;2023-05-28T04:09:52;91293.84;;;13.22;86.02
44481;BME280;30184;42.018;23.670;2023-05-28T04:12:22;91257.97;;;13.42;85.94
44481;BME280;30184;42.018;23.670;2023-05-28T04:14:53;91254.31;;;13.54;85.14
44481;BME280;30184;42.018;23.670;2023-05-28T04:17:23;91249.34;;;13.62;84.51
44481;BME280;30184;42.018;23.670;2023-05-28T04:19:53;91252.22;;;13.67;83.99
44481;BME280;30184;42.018;23.670;2023-05-28T04:22:23;91257.03;;;13.72;83.22
44481;BME280;30184;42.018;23.670;2023-05-28T04:24:52;91209.81;;;13.39;82.59
44481;BME280;30184;42.018;23.670;2023-05-28T04:27:24;91253.72;;;13.68;83.02
44481;BME280;30184;42.018;23.670;2023-05-28T04:29:54;91259.75;;;13.72;82.92
44481;BME280;30184;42.018;23.670;2023-05-28T04:32:24;91254.31;;;13.72;82.25
44481;BME280;30184;42.018;23.670;2023-05-28T04:34:55;91248.84;;;13.72;82.08
44481;BME280;30184;42.018;23.670;2023-05-28T04:37:24;91247.50;;;13.77;81.88
44481;BME280;30184;42.018;23.670;2023-05-28T04:39:54;91248.56;;;13.79;82.00
44481;BME280;30184;42.018;23.670;2023-05-28T04:42:27;91250.34;;;13.92;81.59
44481;BME280;30184;42.018;23.670;2023-05-28T04:44:56;91253.06;;;14.01;81.13
44481;BME280;30184;42.018;23.670;2023-05-28T04:47:26;91253.78;;;14.10;81.35
44481;BME280;30184;42.018;23.670;2023-05-28T04:49:56;91251.66;;;14.14;81.63
44481;BME280;30184;42.018;23.670;2023-05-28T04:52:26;91255.16;;;14.15;81.38
44481;BME280;30184;42.018;23.670;2023-05-28T04:54:59;91248.50;;;14.16;81.67
44481;BME280;30184;42.018;23.670;2023-05-28T04:57:30;91163.00;;;13.59;81.37
44481;BME280;30184;42.018;23.670;2023-05-28T05:00:01;91246.97;;;14.15;81.02
44481;BME280;30184;42.018;23.670;2023-05-28T05:02:34;91186.91;;;13.73;80.17
44481;BME280;30184;42.018;23.670;2023-05-28T05:05:04;91244.69;;;14.13;80.42
44481;BME280;30184;42.018;23.670;2023-05-28T05:07:35;91238.59;;;14.18;80.49
44481;BME280;30184;42.018;23.670;2023-05-28T05:10:06;91240.28;;;14.25;80.38
44481;BME280;30184;42.018;23.670;2023-05-28T05:12:38;91244.78;;;14.28;79.82
44481;BME280;30184;42.018;23.670;2023-05-28T05:15:08;91233.22;;;13.91;79.51
44481;BME280;30184;42.018;23.670;2023-05-28T05:17:38;91242.38;;;14.39;80.23
44481;BME280;30184;42.018;23.670;2023-05-28T05:20:09;91273.16;;;14.40;79.08
44481;BME280;30184;42.018;23.670;2023-05-28T05:22:39;91236.75;;;14.43;78.54
44481;BME280;30184;42.018;23.670;2023-05-28T05:25:08;91243.09;;;14.49;79.00
44481;BME280;30184;42.018;23.670;2023-05-28T05:27:43;91240.66;;;14.51;78.70
44481;BME280;30184;42.018;23.670;2023-05-28T05:30:13;91237.50;;;14.43;78.44
44481;BME280;30184;42.018;23.670;2023-05-28T05:32:43;91240.19;;;14.52;78.57
44481;BME280;30184;42.018;23.670;2023-05-28T05:35:12;91248.69;;;14.54;78.78
44481;BME280;30184;42.018;23.670;2023-05-28T05:38:06;91248.50;;;14.58;78.94
44481;BME280;30184;42.018;23.670;2023-05-28T05:40:50;91250.78;;;14.60;79.01
44481;BME280;30184;42.018;23.670;2023-05-28T05:43:41;91259.88;;;14.56;78.31
44481;BME280;30184;42.018;23.670;2023-05-28T05:46:11;91252.31;;;14.61;78.53
44481;BME280;30184;42.018;23.670;2023-05-28T05:48:40;91259.56;;;14.64;78.61
44481;BME280;30184;42.018;23.670;2023-05-28T05:51:10;91255.44;;;14.68;78.91
44481;BME280;30184;42.018;23.670;2023-05-28T05:53:44;91177.81;;;14.18;78.29
44481;BME280;30184;42.018;23.670;2023-05-28T05:56:14;91194.19;;;14.27;78.67
44481;BME280;30184;42.018;23.670;2023-05-28T05:58:45;91259.06;;;14.74;79.26
44481;BME280;30184;42.018;23.670;2023-05-28T06:01:17;91252.22;;;14.79;78.75
44481;BME280;30184;42.018;23.670;2023-05-28T06:03:47;91252.22;;;14.79;78.49
44481;BME280;30184;42.018;23.670;2023-05-28T06:06:43;91261.91;;;14.80;78.00
44481;BME280;30184;42.018;23.670;2023-05-28T06:09:31;91263.44;;;14.81;77.44
44481;BME280;30184;42.018;23.670;2023-05-28T06:12:10;91265.72;;;14.82;76.65
44481;BME280;30184;42.018;23.670;2023-05-28T06:14:40;91262.50;;;14.84;76.16
44481;BME280;30184;42.018;23.670;2023-05-28T06:17:09;91270.81;;;14.89;76.91
44481;BME280;30184;42.018;23.670;2023-05-28T06:19:39;91222.41;;;14.57;77.42
44481;BME280;30184;42.018;23.670;2023-05-28T06:22:09;91261.81;;;14.98;77.96
44481;BME280;30184;42.018;23.670;2023-05-28T06:24:39;91280.31;;;15.03;77.61
44481;BME280;30184;42.018;23.670;2023-05-28T06:27:08;91275.53;;;15.13;77.29
44481;BME280;30184;42.018;23.670;2023-05-28T06:29:40;91263.34;;;15.23;76.87
44481;BME280;30184;42.018;23.670;2023-05-28T06:32:11;91271.03;;;15.34;71.32
44481;BME280;30184;42.018;23.670;2023-05-28T06:34:41;91278.03;;;15.49;70.45
44481;BME280;30184;42.018;23.670;2023-05-28T06:37:11;91281.63;;;15.64;68.22
44481;BME280;30184;42.018;23.670;2023-05-28T06:39:41;91273.66;;;15.90;67.42
44481;BME280;30184;42.018;23.670;2023-05-28T06:42:10;91271.22;;;16.07;66.21
44481;BME280;30184;42.018;23.670;2023-05-28T06:44:49;91270.09;;;16.28;66.40
44481;BME280;30184;42.018;23.670;2023-05-28T06:47:19;91267.06;;;16.41;65.18
44481;BME280;30184;42.018;23.670;2023-05-28T06:49:48;91274.34;;;16.59;64.95
44481;BME280;30184;42.018;23.670;2023-05-28T06:52:18;91311.47;;;16.74;63.68
44481;BME280;30184;42.018;23.670;2023-05-28T06:54:48;91264.38;;;16.91;62.58
44481;BME280;30184;42.018;23.670;2023-05-28T06:57:18;91268.25;;;16.99;62.23
44481;BME280;30184;42.018;23.670;2023-05-28T07:00:10;91255.63;;;17.07;62.80
44481;BME280;30184;42.018;23.670;2023-05-28T07:03:19;91271.03;;;17.39;62.26
44481;BME280;30184;42.018;23.670;2023-05-28T07:05:59;91264.47;;;17.51;60.45
44481;BME280;30184;42.018;23.670;2023-05-28T07:08:30;91259.25;;;17.53;58.53
44481;BME280;30184;42.018;23.670;2023-05-28T07:10:59;91174.16;;;17.07;59.24
44481;BME280;30184;42.018;23.670;2023-05-28T07:13:29;91262.50;;;17.72;59.53
44481;BME280;30184;42.018;23.670;2023-05-28T07:16:00;91188.75;;;17.39;58.35
44481;BME280;30184;42.018;23.670;2023-05-28T07:18:30;91257.59;;;17.82;58.07
44481;BME280;30184;42.018;23.670;2023-05-28T07:20:59;91248.91;;;18.09;59.03
44481;BME280;30184;42.018;23.670;2023-05-28T07:23:36;91246.00;;;18.18;58.33
44481;BME280;30184;42.018;23.670;2023-05-28T07:26:06;91106.91;;;17.32;57.20
44481;BME280;30184;42.018;23.670;2023-05-28T07:28:35;91215.38;;;18.00;57.27
44481;BME280;30184;42.018;23.670;2023-05-28T07:31:06;91189.75;;;17.82;56.66
44481;BME280;30184;42.018;23.670;2023-05-28T07:33:35;91231.47;;;18.12;56.03
44481;BME280;30184;42.018;23.670;2023-05-28T07:36:05;91223.34;;;18.23;56.37
44481;BME280;30184;42.018;23.670;2023-05-28T07:38:37;91131.38;;;17.62;55.85
44481;BME280;30184;42.018;23.670;2023-05-28T07:41:06;91223.00;;;18.42;56.11
44481;BME280;30184;42.018;23.670;2023-05-28T07:43:44;91224.56;;;18.48;54.75
44481;BME280;30184;42.018;23.670;2023-05-28T07:46:23;91219.72;;;18.38;54.77
44481;BME280;30184;42.018;23.670;2023-05-28T07:49:04;91226.50;;;18.42;55.16
44481;BME280;30184;42.018;23.670;2023-05-28T07:51:43;91231.28;;;18.47;55.78
44481;BME280;30184;42.018;23.670;2023-05-28T07:54:19;91219.72;;;18.38;54.29
44481;BME280;30184;42.018;23.670;2023-05-28T07:56:49;91200.66;;;18.28;55.03
44481;BME280;30184;42.018;23.670;2023-05-28T07:59:28;91218.69;;;18.35;55.14
44481;BME280;30184;42.018;23.670;2023-05-28T08:01:59;91238.69;;;18.36;55.20
44481;BME280;30184;42.018;23.670;2023-05-28T08:04:30;91223.97;;;18.39;54.87
44481;BME280;30184;42.018;23.670;2023-05-28T08:07:00;91267.81;;;18.27;55.15
44481;BME280;30184;42.018;23.670;2023-05-28T08:09:30;91208.28;;;18.13;55.65
44481;BME280;30184;42.018;23.670;2023-05-28T08:12:00;91140.56;;;17.33;56.22
44481;BME280;30184;42.018;23.670;2023-05-28T08:14:31;91312.91;;;18.15;55.56
44481;BME280;30184;42.018;23.670;2023-05-28T08:17:08;91216.13;;;18.00;55.74
44481;BME280;30184;42.018;23.670;2023-05-28T08:19:55;91222.47;;;17.86;55.35
44481;BME280;30184;42.018;23.670;2023-05-28T08:22:59;91229.00;;;17.88;57.77
44481;BME280;30184;42.018;23.670;2023-05-28T08:25:30;91227.97;;;17.86;58.14
44481;BME280;30184;42.018;23.670;2023-05-28T08:28:06;91227.28;;;17.71;57.81
44481;BME280;30184;42.018;23.670;2023-05-28T08:30:37;91013.16;;;16.21;57.66
44481;BME280;30184;42.018;23.670;2023-05-28T08:33:17;91248.44;;;17.65;57.60
44481;BME280;30184;42.018;23.670;2023-05-28T08:35:48;91209.53;;;17.46;57.67
44481;BME280;30184;42.018;23.670;2023-05-28T08:38:19;91224.94;;;17.43;60.78
44481;BME280;30184;42.018;23.670;2023-05-28T08:40:54;91237.47;;;17.65;61.32
44481;BME280;30184;42.018;23.670;2023-05-28T08:43:24;91221.00;;;17.65;62.42
44481;BME280;30184;42.018;23.670;2023-05-28T08:45:56;91090.78;;;16.73;62.66
44481;BME280;30184;42.018;23.670;2023-05-28T08:48:40;91214.19;;;17.60;62.09
44481;BME280;30184;42.018;23.670;2023-05-28T08:51:11;91225.09;;;17.75;61.63
44481;BME280;30184;42.018;23.670;2023-05-28T08:53:46;91228.44;;;17.84;61.41
44481;BME280;30184;42.018;23.670;2023-05-28T08:56:23;91227.59;;;17.99;61.94
44481;BME280;30184;42.018;23.670;2023-05-28T08:58:53;91173.34;;;17.88;60.68
44481;BME280;30184;42.018;23.670;2023-05-28T09:01:23;91224.59;;;18.22;58.76
44481;BME280;30184;42.018;23.670;2023-05-28T09:04:15;91215.47;;;18.37;59.60
44481;BME280;30184;42.018;23.670;2023-05-28T09:06:48;91210.78;;;18.43;58.85
44481;BME280;30184;42.018;23.670;2023-05-28T09:09:25;91216.47;;;18.34;59.01
44481;BME280;30184;42.018;23.670;2023-05-28T09:11:57;91237.69;;;18.33;59.04
44481;BME280;30184;42.018;23.670;2023-05-28T09:14:37;91210.38;;;18.24;59.01
44481;BME280;30184;42.018;23.670;2023-05-28T09:17:08;91213.94;;;18.36;58.67
44481;BME280;30184;42.018;23.670;2023-05-28T09:19:51;91213.25;;;18.41;59.02
44481;BME280;30184;42.018;23.670;2023-05-28T09:22:22;91243.00;;;18.42;59.08
44481;BME280;30184;42.018;23.670;2023-05-28T09:25:04;91192.97;;;18.33;60.46
44481;BME280;30184;42.018;23.670;2023-05-28T09:28:00;91216.09;;;18.52;61.11
44481;BME280;30184;42.018;23.670;2023-05-28T09:30:33;91211.72;;;18.66;61.50
44481;BME280;30184;42.018;23.670;2023-05-28T09:33:04;91116.03;;;17.96;61.04
44481;BME280;30184;42.018;23.670;2023-05-28T09:35:36;91233.41;;;18.58;62.27
44481;BME280;30184;42.018;23.670;2023-05-28T09:38:06;91218.06;;;18.77;62.74
44481;BME280;30184;42.018;23.670;2023-05-28T09:40:39;91231.53;;;18.75;62.61
44481;BME280;30184;42.018;23.670;2023-05-28T09:43:10;91226.47;;;18.62;62.80
44481;BME280;30184;42.018;23.670;2023-05-28T09:45:39;91234.16;;;18.58;64.69
44481;BME280;30184;42.018;23.670;2023-05-28T09:48:08;91236.63;;;18.56;64.80
44481;BME280;30184;42.018;23.670;2023-05-28T09:50:39;91250.28;;;18.19;66.63
44481;BME280;30184;42.018;23.670;2023-05-28T09:53:08;91195.81;;;17.66;68.96
44481;BME280;30184;42.018;23.670;2023-05-28T09:55:39;91250.84;;;18.03;70.41
44481;BME280;30184;42.018;23.670;2023-05-28T09:58:08;91250.66;;;18.07;72.09
44481;BME280;30184;42.018;23.670;2023-05-28T10:00:40;91252.66;;;18.06;71.62
44481;BME280;30184;42.018;23.670;2023-05-28T10:03:20;91251.38;;;18.07;71.69
44481;BME280;30184;42.018;23.670;2023-05-28T10:05:56;91270.06;;;18.03;72.58
44481;BME280;30184;42.018;23.670;2023-05-28T10:08:27;91256.97;;;17.93;72.38
44481;BME280;30184;42.018;23.670;2023-05-28T10:10:57;91254.19;;;17.87;73.66
44481;BME280;30184;42.018;23.670;2023-05-28T10:13:27;91249.78;;;17.54;73.85
44481;BME280;30184;42.018;23.670;2023-05-28T10:15:57;91249.50;;;17.52;75.20
44481;BME280;30184;42.018;23.670;2023-05-28T10:18:27;91225.16;;;17.20;75.53
44481;BME280;30184;42.018;23.670;2023-05-28T10:20:59;91273.22;;;17.35;76.61
44481;BME280;30184;42.018;23.670;2023-05-28T10:23:29;91271.09;;;17.25;77.53
44481;BME280;30184;42.018;23.670;2023-05-28T10:25:59;91274.44;;;17.14;76.26
44481;BME280;30184;42.018;23.670;2023-05-28T10:28:29;91258.03;;;16.99;77.62
44481;BME280;30184;42.018;23.670;2023-05-28T10:31:05;91269.31;;;17.22;78.14
44481;BME280;30184;42.018;23.670;2023-05-28T10:33:37;91255.44;;;17.10;78.64
44481;BME280;30184;42.018;23.670;2023-05-28T10:36:11;91256.63;;;17.24;78.57
44481;BME280;30184;42.018;23.670;2023-05-28T10:38:42;91296.03;;;17.27;77.80
44481;BME280;30184;42.018;23.670;2023-05-28T10:41:17;91263.78;;;17.57;78.10
44481;BME280;30184;42.018;23.670;2023-05-28T10:43:48;91266.06;;;17.78;78.17
44481;BME280;30184;42.018;23.670;2023-05-28T10:46:18;91262.94;;;17.91;77.06
44481;BME280;30184;42.018;23.670;2023-05-28T10:49:12;91238.38;;;18.02;77.66
44481;BME280;30184;42.018;23.670;2023-05-28T10:51:45;91252.91;;;18.34;76.13
44481;BME280;30184;42.018;23.670;2023-05-28T10:54:16;91213.09;;;17.98;73.28
44481;BME280;30184;42.018;23.670;2023-05-28T10:57:16;91249.72;;;18.41;75.30
44481;BME280;30184;42.018;23.670;2023-05-28T10:59:48;91248.94;;;18.61;74.36
44481;BME280;30184;42.018;23.670;2023-05-28T11:02:22;91241.03;;;18.74;73.03
44481;BME280;30184;42.018;23.670;2023-05-28T11:04:53;91224.03;;;18.70;71.92
44481;BME280;30184;42.018;23.670;2023-05-28T11:07:32;91295.41;;;18.90;71.24
44481;BME280;30184;42.018;23.670;2023-05-28T11:10:02;91228.03;;;19.12;70.45
44481;BME280;30184;42.018;23.670;2023-05-28T11:12:36;91226.38;;;19.31;69.83
44481;BME280;30184;42.018;23.670;2023-05-28T11:15:07;91209.66;;;19.34;68.16
44481;BME280;30184;42.018;23.670;2023-05-28T11:17:39;91208.00;;;19.48;67.42
44481;BME280;30184;42.018;23.670;2023-05-28T11:20:16;91207.06;;;19.62;68.99
44481;BME280;30184;42.018;23.670;2023-05-28T11:22:48;91210.56;;;19.68;67.16
44481;BME280;30184;42.018;23.670;2023-05-28T11:25:18;91211.56;;;19.65;63.49
44481;BME280;30184;42.018;23.670;2023-05-28T11:27:48;91133.00;;;19.11;65.04
44481;BME280;30184;42.018;23.670;2023-05-28T11:30:19;91225.59;;;19.67;66.97
44481;BME280;30184;42.018;23.670;2023-05-28T11:32:49;91185.84;;;19.85;65.12
44481;BME280;30184;42.018;23.670;2023-05-28T11:35:19;91132.22;;;19.53;60.63
44481;BME280;30184;42.018;23.670;2023-05-28T11:37:49;91202.94;;;20.06;60.77
44481;BME280;30184;42.018;23.670;2023-05-28T11:40:20;91113.22;;;19.66;59.94
44481;BME280;30184;42.018;23.670;2023-05-28T11:42:49;91193.19;;;20.16;58.73
44481;BME280;30184;42.018;23.670;2023-05-28T11:45:18;91190.47;;;20.44;60.64
44481;BME280;30184;42.018;23.670;2023-05-28T11:47:47;91190.00;;;20.57;54.38
44481;BME280;30184;42.018;23.670;2023-05-28T11:50:17;91213.53;;;20.58;56.12
44481;BME280;30184;42.018;23.670;2023-05-28T11:52:49;91176.69;;;20.44;53.42
44481;BME280;30184;42.018;23.670;2023-05-28T11:55:19;91181.44;;;20.27;54.98
44481;BME280;30184;42.018;23.670;2023-05-28T11:57:52;91186.16;;;20.15;55.11
44481;BME280;30184;42.018;23.670;2023-05-28T12:00:29;91191.94;;;20.17;55.83
44481;BME280;30184;42.018;23.670;2023-05-28T12:03:00;91073.59;;;19.41;56.50
44481;BME280;30184;42.018;23.670;2023-05-28T12:05:36;91181.88;;;20.03;53.57
44481;BME280;30184;42.018;23.670;2023-05-28T12:08:07;91177.16;;;20.20;53.61
44481;BME280;30184;42.018;23.670;2023-05-28T12:10:39;91185.66;;;20.05;54.00
44481;BME280;30184;42.018;23.670;2023-05-28T12:13:08;91178.63;;;19.99;56.63
44481;BME280;30184;42.018;23.670;2023-05-28T12:15:41;91176.56;;;19.77;55.02
44481;BME280;30184;42.018;23.670;2023-05-28T12:18:10;91163.06;;;19.85;53.94
44481;BME280;30184;42.018;23.670;2023-05-28T12:20:40;91176.13;;;20.06;54.74
44481;BME280;30184;42.018;23.670;2023-05-28T12:23:12;91156.84;;;19.95;54.78
44481;BME280;30184;42.018;23.670;2023-05-28T12:25:48;91111.22;;;19.61;54.86
44481;BME280;30184;42.018;23.670;2023-05-28T12:28:19;91171.59;;;19.87;53.62
44481;BME280;30184;42.018;23.670;2023-05-28T12:30:51;91161.13;;;20.19;54.98
44481;BME280;30184;42.018;23.670;2023-05-28T12:33:22;91160.41;;;20.46;53.35
44481;BME280;30184;42.018;23.670;2023-05-28T12:35:51;91161.16;;;20.52;48.94
44481;BME280;30184;42.018;23.670;2023-05-28T12:38:22;91165.91;;;20.52;48.42
44481;BME280;30184;42.018;23.670;2023-05-28T12:40:51;91203.00;;;20.39;49.60
44481;BME280;30184;42.018;23.670;2023-05-28T12:43:20;91167.16;;;20.28;50.06
44481;BME280;30184;42.018;23.670;2023-05-28T12:45:50;91168.38;;;20.16;48.58
44481;BME280;30184;42.018;23.670;2023-05-28T12:48:19;91161.88;;;20.25;49.66
44481;BME280;30184;42.018;23.670;2023-05-28T12:50:48;91170.94;;;20.36;49.30
44481;BME280;30184;42.018;23.670;2023-05-28T12:53:17;91162.69;;;20.47;47.56
44481;BME280;30184;42.018;23.670;2023-05-28T12:55:48;91159.63;;;20.68;48.64
44481;BME280;30184;42.018;23.670;2023-05-28T12:58:17;91166.66;;;20.80;48.37
44481;BME280;30184;42.018;23.670;2023-05-28T13:00:47;91158.34;;;21.08;46.12
44481;BME280;30184;42.018;23.670;2023-05-28T13:03:17;91173.41;;;20.96;45.53
44481;BME280;30184;42.018;23.670;2023-05-28T13:05:47;91164.63;;;20.86;45.00
44481;BME280;30184;42.018;23.670;2023-05-28T13:08:16;91164.44;;;20.56;44.98
44481;BME280;30184;42.018;23.670;2023-05-28T13:10:45;91174.97;;;20.46;46.62
44481;BME280;30184;42.018;23.670;2023-05-28T13:13:16;91173.91;;;20.27;46.19
44481;BME280;30184;42.018;23.670;2023-05-28T13:15:45;91114.28;;;20.07;48.02